createdAt,value
2018-02-14T00:02:24.522Z,78.90
2018-02-14T00:04:52.458Z,78.90
2018-02-14T00:07:20.358Z,78.90
2018-02-14T00:09:47.886Z,78.90
2018-02-14T00:12:15.420Z,79.00
2018-02-14T00:14:43.726Z,79.10
2018-02-14T00:17:11.226Z,79.00
2018-02-14T00:19:39.150Z,78.90
2018-02-14T00:22:06.682Z,78.70
2018-02-14T00:24:34.191Z,78.70
2018-02-14T00:27:01.726Z,78.50
2018-02-14T00:29:29.255Z,78.20
2018-02-14T00:31:56.800Z,78.20
2018-02-14T00:34:24.302Z,78.10
2018-02-14T00:36:52.227Z,78.20
2018-02-14T00:39:20.139Z,78.20
2018-02-14T00:41:47.674Z,78.10
2018-02-14T00:44:15.179Z,78.20
2018-02-14T00:46:43.095Z,78.20
2018-02-14T00:49:10.998Z,78.20
2018-02-14T00:51:38.526Z,78.20
2018-02-14T00:54:06.046Z,78.20
2018-02-14T00:56:33.980Z,78.20
2018-02-14T00:59:01.510Z,78.10
2018-02-14T01:01:29.430Z,77.80
2018-02-14T01:03:56.941Z,77.80
2018-02-14T01:06:24.477Z,77.80
2018-02-14T01:08:52.432Z,77.80
2018-02-14T01:11:20.365Z,77.80
2018-02-14T01:13:48.265Z,77.80
2018-02-14T01:29:24.883Z,77.80
2018-02-14T01:31:52.388Z,77.80
2018-02-14T01:34:20.311Z,77.70
2018-02-14T01:36:48.211Z,77.50
2018-02-14T01:39:16.251Z,77.30
2018-02-14T01:41:44.146Z,77.30
2018-02-14T01:44:12.063Z,77.40
2018-02-14T01:46:39.571Z,77.50
2018-02-14T01:49:07.499Z,77.50
2018-02-14T01:51:35.406Z,77.70
2018-02-14T01:54:02.937Z,77.70
2018-02-14T01:56:30.451Z,77.60
2018-02-14T01:58:57.978Z,77.40
2018-02-14T02:01:25.478Z,77.30
2018-02-14T02:03:52.997Z,77.30
2018-02-14T02:06:20.658Z,77.40
2018-02-14T02:08:48.190Z,77.30
2018-02-14T02:11:16.467Z,77.30
2018-02-14T02:13:44.393Z,77.50
2018-02-14T02:16:11.896Z,77.50
2018-02-14T02:18:39.961Z,77.50
2018-02-14T02:21:08.226Z,77.50
2018-02-14T02:23:35.760Z,77.60
2018-02-14T02:26:03.362Z,77.70
2018-02-14T02:28:30.887Z,77.70
2018-02-14T02:30:59.166Z,77.70
2018-02-14T02:33:27.066Z,77.70
2018-02-14T02:35:54.588Z,77.70
2018-02-14T02:38:22.082Z,77.70
2018-02-14T02:40:49.610Z,77.70
2018-02-14T02:43:17.582Z,77.60
2018-02-14T02:45:45.108Z,77.60
2018-02-14T02:48:12.998Z,77.60
2018-02-14T02:50:40.935Z,77.50
2018-02-14T02:53:08.848Z,77.60
2018-02-14T02:55:37.113Z,77.30
2018-02-14T02:58:04.631Z,77.30
2018-02-14T03:00:32.544Z,77.40
2018-02-14T03:03:00.062Z,77.30
2018-02-14T03:05:27.987Z,77.50
2018-02-14T03:07:55.890Z,77.50
2018-02-14T03:10:23.879Z,77.60
2018-02-14T03:12:51.383Z,77.60
2018-02-14T03:15:19.308Z,77.50
2018-02-14T03:17:46.826Z,77.50
2018-02-14T03:20:14.357Z,77.50
2018-02-14T03:22:41.870Z,77.60
2018-02-14T03:25:10.158Z,77.20
2018-02-14T03:27:38.054Z,77.20
2018-02-14T03:30:05.751Z,77.10
2018-02-14T03:32:33.260Z,77.10
2018-02-14T03:35:00.758Z,77.20
2018-02-14T03:37:28.686Z,77.20
2018-02-14T03:39:56.391Z,77.10
2018-02-14T03:42:23.930Z,77.10
2018-02-14T03:44:51.443Z,77.30
2018-02-14T03:47:19.171Z,77.50
2018-02-14T03:49:46.665Z,77.70
2018-02-14T03:52:14.191Z,77.70
2018-02-14T03:54:42.455Z,77.70
2018-02-14T03:57:10.746Z,77.80
2018-02-14T03:59:38.245Z,77.60
2018-02-14T04:02:06.170Z,77.70
2018-02-14T04:04:34.074Z,77.50
2018-02-14T04:07:01.998Z,77.40
2018-02-14T04:09:29.518Z,77.20
2018-02-14T04:11:57.512Z,77.10
2018-02-14T04:14:25.402Z,77.10
2018-02-14T04:16:52.959Z,77.00
2018-02-14T04:19:20.477Z,77.20
2018-02-14T04:21:48.001Z,77.30
2018-02-14T04:24:15.541Z,77.20
2018-02-14T04:26:43.460Z,77.30
2018-02-14T04:29:11.358Z,77.40
2018-02-14T04:31:40.066Z,77.30
2018-02-14T04:34:07.572Z,77.30
2018-02-14T04:36:35.091Z,77.30
2018-02-14T04:39:02.622Z,77.40
2018-02-14T04:41:30.322Z,77.40
2018-02-14T04:43:58.000Z,77.40
2018-02-14T04:46:25.501Z,77.40
2018-02-14T04:48:53.799Z,77.40
2018-02-14T04:51:21.304Z,77.40
2018-02-14T04:53:48.834Z,77.50
2018-02-14T04:56:16.734Z,77.50
2018-02-14T04:58:44.257Z,77.50
2018-02-14T05:01:12.160Z,77.60
2018-02-14T05:03:39.689Z,77.40
2018-02-14T05:06:07.186Z,77.40
2018-02-14T05:08:35.155Z,77.40
2018-02-14T05:11:03.059Z,77.30
2018-02-14T05:13:30.573Z,77.00
2018-02-14T05:15:58.510Z,76.90
2018-02-14T05:18:26.006Z,77.00
2018-02-14T05:20:53.537Z,77.00
2018-02-14T05:23:21.435Z,77.10
2018-02-14T05:25:48.954Z,77.10
2018-02-14T05:28:16.649Z,76.90
2018-02-14T05:30:44.211Z,76.90
2018-02-14T05:33:11.712Z,76.80
2018-02-14T05:35:39.241Z,76.90
2018-02-14T05:38:07.510Z,77.20
2018-02-14T05:40:35.157Z,77.20
2018-02-14T05:43:02.804Z,77.30
2018-02-14T05:45:30.328Z,77.40
2018-02-14T05:47:58.226Z,77.30
2018-02-14T05:50:26.220Z,77.40
2018-02-14T05:52:54.154Z,77.30
2018-02-14T05:55:24.173Z,77.30
2018-02-14T05:57:52.450Z,77.20
2018-02-14T06:00:19.973Z,77.40
2018-02-14T06:02:47.879Z,77.40
2018-02-14T06:05:15.856Z,77.20
2018-02-14T06:07:43.863Z,77.40
2018-02-14T06:10:11.373Z,77.70
2018-02-14T06:12:38.938Z,78.10
2018-02-14T06:15:06.446Z,78.20
2018-02-14T06:17:34.134Z,78.20
2018-02-14T06:20:02.078Z,78.10
2018-02-14T06:22:29.626Z,78.10
2018-02-14T06:24:57.160Z,78.10
2018-02-14T06:27:25.454Z,78.10
2018-02-14T06:29:53.365Z,78.10
2018-02-14T06:32:21.295Z,77.80
2018-02-14T06:34:48.804Z,77.80
2018-02-14T06:37:16.345Z,77.70
2018-02-14T06:39:44.254Z,77.50
2018-02-14T06:42:11.787Z,77.40
2018-02-14T06:44:39.709Z,77.40
2018-02-14T06:47:07.661Z,77.40
2018-02-14T06:49:35.194Z,77.40
2018-02-14T06:52:02.757Z,77.20
2018-02-14T06:54:30.857Z,77.30
2018-02-14T06:56:58.513Z,77.30
2018-02-14T06:59:26.051Z,77.50
2018-02-14T07:01:53.827Z,77.70
2018-02-14T07:04:21.778Z,78.10
2018-02-14T07:06:49.289Z,78.40
2018-02-14T07:09:17.212Z,78.60
2018-02-14T07:11:44.719Z,78.60
2018-02-14T07:14:13.393Z,78.40
2018-02-14T07:16:41.415Z,77.70
2018-02-14T07:19:09.332Z,77.00
2018-02-14T07:21:37.251Z,75.90
2018-02-14T07:24:04.775Z,75.50
2018-02-14T07:26:32.681Z,75.60
2018-02-14T07:29:00.202Z,75.40
2018-02-14T07:31:27.696Z,75.90
2018-02-14T07:33:55.232Z,75.20
2018-02-14T07:36:22.747Z,75.30
2018-02-14T07:38:50.662Z,74.60
2018-02-14T07:41:18.926Z,74.90
2018-02-14T07:43:46.476Z,74.80
2018-02-14T07:46:14.008Z,74.50
2018-02-14T07:48:41.931Z,74.30
2018-02-14T07:51:09.436Z,74.40
2018-02-14T07:53:37.362Z,74.50
2018-02-14T07:56:04.879Z,74.50
2018-02-14T07:58:32.402Z,74.50
2018-02-14T08:00:59.922Z,74.30
2018-02-14T08:03:27.433Z,74.30
2018-02-14T08:05:55.087Z,74.20
2018-02-14T08:08:23.007Z,74.10
2018-02-14T08:10:50.546Z,74.10
2018-02-14T08:13:18.052Z,73.90
2018-02-14T08:15:46.361Z,73.70
2018-02-14T08:18:13.886Z,73.80
2018-02-14T08:20:41.809Z,73.20
2018-02-14T08:23:09.702Z,73.50
2018-02-14T08:25:37.991Z,73.80
2018-02-14T08:28:05.897Z,73.50
2018-02-14T08:30:33.815Z,73.20
2018-02-14T08:33:01.839Z,73.40
2018-02-14T08:35:30.162Z,72.90
2018-02-14T08:37:58.236Z,73.10
2018-02-14T08:40:26.366Z,73.40
2018-02-14T08:42:53.887Z,73.20
2018-02-14T08:45:21.414Z,72.60
2018-02-14T08:47:49.431Z,71.90
2018-02-14T08:50:16.966Z,72.60
2018-02-14T08:52:44.538Z,72.50
2018-02-14T08:55:12.065Z,72.40
2018-02-14T08:57:39.567Z,71.60
2018-02-14T09:00:07.106Z,72.00
2018-02-14T09:02:34.600Z,71.20
2018-02-14T09:05:02.293Z,71.90
2018-02-14T09:07:29.810Z,71.40
2018-02-14T09:09:57.768Z,71.00
2018-02-14T09:12:25.312Z,70.60
2018-02-14T09:14:53.201Z,70.90
2018-02-14T09:17:21.125Z,70.20
2018-02-14T09:19:48.687Z,69.20
2018-02-14T09:22:16.213Z,70.10
2018-02-14T09:24:43.748Z,70.10
2018-02-14T09:27:11.646Z,69.70
2018-02-14T09:29:39.542Z,69.10
2018-02-14T09:32:07.454Z,68.10
2018-02-14T09:34:34.969Z,67.60
2018-02-14T09:37:03.761Z,67.80
2018-02-14T09:39:31.282Z,67.10
2018-02-14T09:41:58.814Z,66.70
2018-02-14T09:44:26.361Z,64.40
2018-02-14T09:46:54.297Z,66.00
2018-02-14T09:49:21.794Z,66.10
2018-02-14T09:51:49.325Z,65.30
2018-02-14T09:54:16.818Z,65.50
2018-02-14T09:56:44.353Z,65.10
2018-02-14T09:59:12.267Z,65.60
2018-02-14T10:01:39.778Z,66.10
2018-02-14T10:04:07.291Z,66.20
2018-02-14T10:06:34.830Z,66.30
2018-02-14T10:09:02.375Z,65.70
2018-02-14T10:11:30.274Z,66.50
2018-02-14T10:13:57.886Z,65.90
2018-02-14T10:16:25.395Z,65.30
2018-02-14T10:18:53.074Z,64.60
2018-02-14T10:21:20.575Z,64.50
2018-02-14T10:23:48.104Z,63.50
2018-02-14T10:26:15.613Z,62.60
2018-02-14T10:28:43.581Z,62.00
2018-02-14T10:31:11.103Z,60.80
2018-02-14T10:33:38.628Z,61.20
2018-02-14T10:36:06.135Z,61.00
2018-02-14T10:38:34.062Z,61.00
2018-02-14T10:41:02.011Z,61.10
2018-02-14T10:43:29.526Z,60.30
2018-02-14T10:45:57.629Z,61.10
2018-02-14T10:48:25.150Z,59.90
2018-02-14T10:50:52.656Z,60.60
2018-02-14T10:53:20.184Z,60.20
2018-02-14T10:55:47.682Z,60.10
2018-02-14T10:58:15.683Z,60.30
2018-02-14T11:00:49.324Z,59.40
2018-02-14T11:03:22.614Z,59.10
2018-02-14T11:05:56.274Z,59.30
2018-02-14T11:08:24.583Z,61.10
2018-02-14T11:10:52.168Z,61.10
2018-02-14T11:13:19.668Z,61.20
2018-02-14T11:15:47.602Z,61.30
2018-02-14T11:18:15.222Z,61.60
2018-02-14T11:20:42.742Z,62.10
2018-02-14T11:23:10.651Z,61.90
2018-02-14T11:25:38.570Z,63.50
2018-02-14T11:28:06.081Z,64.00
2018-02-14T11:30:33.667Z,64.20
2018-02-14T11:33:01.579Z,65.30
2018-02-14T11:35:29.103Z,65.60
2018-02-14T11:37:56.603Z,65.60
2018-02-14T11:40:24.634Z,66.00
2018-02-14T11:42:52.159Z,66.50
2018-02-14T11:45:21.083Z,67.00
2018-02-14T11:47:48.983Z,67.00
2018-02-14T11:50:16.509Z,66.90
2018-02-14T11:52:44.137Z,67.20
2018-02-14T11:55:11.823Z,67.40
2018-02-14T11:57:39.326Z,67.80
2018-02-14T12:00:07.633Z,68.00
2018-02-14T12:02:35.126Z,67.80
2018-02-14T12:05:02.642Z,68.00
2018-02-14T12:07:30.140Z,68.20
2018-02-14T12:09:58.510Z,68.30
2018-02-14T12:12:26.411Z,68.70
2018-02-14T12:14:53.920Z,69.40
2018-02-14T12:17:22.236Z,69.60
2018-02-14T12:19:50.152Z,69.40
2018-02-14T12:22:18.431Z,69.40
2018-02-14T12:24:45.988Z,69.50
2018-02-14T12:27:13.519Z,69.70
2018-02-14T12:29:41.019Z,69.80
2018-02-14T12:32:08.534Z,69.70
2018-02-14T12:34:36.446Z,70.00
2018-02-14T12:37:04.375Z,70.20
2018-02-14T12:39:32.270Z,70.30
2018-02-14T12:41:59.803Z,70.20
2018-02-14T12:44:27.298Z,70.00
2018-02-14T12:46:54.824Z,70.10
2018-02-14T12:49:22.330Z,70.40
2018-02-14T12:51:50.258Z,70.30
2018-02-14T12:54:18.165Z,69.80
2018-02-14T12:56:46.080Z,70.20
2018-02-14T12:59:13.593Z,69.90
2018-02-14T13:01:41.113Z,70.20
2018-02-14T13:04:09.019Z,70.20
2018-02-14T13:06:36.582Z,70.20
2018-02-14T13:09:04.067Z,70.30
2018-02-14T13:11:32.110Z,70.30
2018-02-14T13:14:00.035Z,70.20
2018-02-14T13:16:27.950Z,70.00
2018-02-14T13:18:55.470Z,70.40
2018-02-14T13:21:22.971Z,70.10
2018-02-14T13:23:50.486Z,70.80
2018-02-14T13:26:18.387Z,70.50
2018-02-14T13:28:45.922Z,70.60
2018-02-14T13:31:13.422Z,70.60
2018-02-14T13:33:41.343Z,70.60
2018-02-14T13:36:08.842Z,70.50
2018-02-14T13:38:36.766Z,70.80
2018-02-14T13:41:04.300Z,71.60
2018-02-14T13:43:32.398Z,71.40
2018-02-14T13:45:59.895Z,71.80
2018-02-14T13:48:27.441Z,71.50
2018-02-14T13:50:55.374Z,71.80
2018-02-14T13:53:23.315Z,71.80
2018-02-14T13:55:51.323Z,71.90
2018-02-14T13:58:18.844Z,71.90
2018-02-14T14:00:46.346Z,72.60
2018-02-14T14:03:14.297Z,72.90
2018-02-14T14:05:41.804Z,72.60
2018-02-14T14:08:09.326Z,72.60
2018-02-14T14:10:37.778Z,72.30
2018-02-14T14:13:05.738Z,72.60
2018-02-14T14:15:34.113Z,72.70
2018-02-14T14:18:01.610Z,72.70
2018-02-14T14:20:29.212Z,72.90
2018-02-14T14:22:57.142Z,73.30
2018-02-14T14:25:24.700Z,73.30
2018-02-14T14:27:52.399Z,73.70
2018-02-14T14:30:20.048Z,73.30
2018-02-14T14:32:48.138Z,73.20
2018-02-14T14:35:15.661Z,73.20
2018-02-14T14:37:43.196Z,73.30
2018-02-14T14:40:10.755Z,73.00
2018-02-14T14:42:39.430Z,72.50
2018-02-14T14:45:06.959Z,72.90
2018-02-14T14:47:34.999Z,73.00
2018-02-14T14:50:02.518Z,73.20
2018-02-14T14:52:30.050Z,73.00
2018-02-14T14:54:58.012Z,72.90
2018-02-14T14:57:25.910Z,73.10
2018-02-14T14:59:53.844Z,72.90
2018-02-14T15:02:21.338Z,72.50
2018-02-14T15:04:48.861Z,72.70
2018-02-14T15:07:16.359Z,73.80
2018-02-14T15:09:43.946Z,73.90
2018-02-14T15:12:11.447Z,73.40
2018-02-14T15:14:39.400Z,73.70
2018-02-14T15:17:07.415Z,73.40
2018-02-14T15:19:34.928Z,73.40
2018-02-14T15:22:02.853Z,73.30
2018-02-14T15:24:30.366Z,72.90
2018-02-14T15:26:57.879Z,73.40
2018-02-14T15:29:25.393Z,73.30
2018-02-14T15:31:52.908Z,73.10
2018-02-14T15:34:20.411Z,73.00
2018-02-14T15:36:47.943Z,73.30
2018-02-14T15:39:15.834Z,73.70
2018-02-14T15:41:43.362Z,74.30
2018-02-14T15:44:11.039Z,74.00
2018-02-14T15:46:38.952Z,74.60
2018-02-14T15:49:07.231Z,74.90
2018-02-14T15:51:34.758Z,74.80
2018-02-14T15:54:02.267Z,74.80
2018-02-14T15:56:29.951Z,74.80
2018-02-14T15:58:57.858Z,75.40
2018-02-14T16:01:25.386Z,75.40
2018-02-14T16:03:53.662Z,75.60
2018-02-14T16:06:21.190Z,75.80
2018-02-14T16:08:48.694Z,75.90
2018-02-14T16:11:16.988Z,76.10
2018-02-14T16:13:45.000Z,76.00
2018-02-14T16:16:12.996Z,76.20
2018-02-14T16:18:40.506Z,76.30
2018-02-14T16:21:08.012Z,76.50
2018-02-14T16:23:35.936Z,76.80
2018-02-14T16:26:03.459Z,76.70
2018-02-14T16:28:30.998Z,76.80
2018-02-14T16:30:58.504Z,77.20
2018-02-14T16:33:26.132Z,77.50
2018-02-14T16:35:54.030Z,78.00
2018-02-14T16:38:21.967Z,78.30
2018-02-14T16:40:49.865Z,78.40
2018-02-14T16:43:17.390Z,78.70
2018-02-14T16:45:44.910Z,78.90
2018-02-14T16:48:12.436Z,79.00
2018-02-14T16:50:39.953Z,79.20
2018-02-14T16:53:07.886Z,79.40
2018-02-14T16:55:35.396Z,79.40
2018-02-14T16:58:02.981Z,79.70
2018-02-14T17:00:30.497Z,79.80
2018-02-14T17:02:58.431Z,79.80
2018-02-14T17:05:26.342Z,79.90
2018-02-14T17:10:25.597Z,80.10
2018-02-14T17:12:53.130Z,80.20
2018-02-14T17:15:20.845Z,80.20
2018-02-14T17:17:48.784Z,80.30
2018-02-14T17:20:16.683Z,80.30
2018-02-14T17:22:45.022Z,80.30
2018-02-14T17:25:13.303Z,80.40
2018-02-14T17:27:41.587Z,80.50
2018-02-14T17:30:09.509Z,80.50
2018-02-14T17:32:37.010Z,80.50
2018-02-14T17:35:04.550Z,80.60
2018-02-14T17:37:32.472Z,80.60
2018-02-14T17:40:00.030Z,80.90
2018-02-14T17:42:28.071Z,81.00
2018-02-14T17:44:55.605Z,81.10
2018-02-14T17:47:23.523Z,81.10
2018-02-14T17:49:51.455Z,81.20
2018-02-14T17:52:18.956Z,81.30
2018-02-14T17:54:47.089Z,81.30
2018-02-14T17:57:15.161Z,81.30
2018-02-14T17:59:43.095Z,81.20
2018-02-14T18:02:11.747Z,81.20
2018-02-14T18:04:39.287Z,81.20
2018-02-14T18:07:07.562Z,81.20
2018-02-14T18:09:35.142Z,81.10
2018-02-14T18:12:02.647Z,81.10
2018-02-14T18:14:30.238Z,81.30
2018-02-14T18:16:58.145Z,81.40
2018-02-14T18:19:26.078Z,81.40
2018-02-14T18:21:54.383Z,81.60
2018-02-14T18:24:22.350Z,81.60
2018-02-14T18:26:49.942Z,81.40
2018-02-14T18:29:17.458Z,81.40
2018-02-14T18:31:45.778Z,81.40
2018-02-14T18:34:13.312Z,81.30
2018-02-14T18:36:40.847Z,81.10
2018-02-14T18:39:08.358Z,80.90
2018-02-14T18:41:36.085Z,80.90
2018-02-14T18:44:03.590Z,80.90
2018-02-14T18:46:31.121Z,81.00
2018-02-14T18:48:58.647Z,81.00
2018-02-14T18:51:26.240Z,81.00
2018-02-14T18:53:53.746Z,80.90
2018-02-14T18:56:21.307Z,80.60
2018-02-14T18:58:48.822Z,80.50
2018-02-14T19:01:16.346Z,80.40
2018-02-14T19:03:44.398Z,80.30
2018-02-14T19:06:12.306Z,80.30
2018-02-14T19:08:40.202Z,80.30
2018-02-14T19:11:07.747Z,80.10
2018-02-14T19:13:35.694Z,80.00
2018-02-14T19:16:03.617Z,79.90
2018-02-14T19:18:31.890Z,79.90
2018-02-14T19:20:59.432Z,79.70
2018-02-14T19:23:26.943Z,79.80
2018-02-14T19:25:54.534Z,79.60
2018-02-14T19:28:22.624Z,79.60
2018-02-14T19:30:50.322Z,79.20
2018-02-14T19:33:17.852Z,79.50
2018-02-14T19:35:45.359Z,79.40
2018-02-14T19:38:12.890Z,79.40
2018-02-14T19:40:40.390Z,79.40
2018-02-14T19:43:07.969Z,79.40
2018-02-14T19:45:35.486Z,79.40
2018-02-14T19:48:03.796Z,79.40
2018-02-14T19:50:32.072Z,79.20
2018-02-14T19:52:59.604Z,79.10
2018-02-14T19:55:27.546Z,79.10
2018-02-14T19:57:55.451Z,79.00
2018-02-14T20:00:22.965Z,79.00
2018-02-14T20:02:50.897Z,79.00
2018-02-14T20:05:18.399Z,79.00
2018-02-14T20:07:46.385Z,79.00
2018-02-14T20:10:14.462Z,79.10
2018-02-14T20:12:42.437Z,79.10
2018-02-14T20:15:09.953Z,79.00
2018-02-14T20:17:37.483Z,78.90
2018-02-14T20:20:05.018Z,79.00
2018-02-14T20:22:32.548Z,79.20
2018-02-14T20:25:00.478Z,79.20
2018-02-14T20:27:28.492Z,79.20
2018-02-14T20:29:56.969Z,79.40
2018-02-14T20:32:25.054Z,79.20
2018-02-14T20:34:53.001Z,79.20
2018-02-14T20:37:20.533Z,79.20
2018-02-14T20:39:48.238Z,79.10
2018-02-14T20:42:16.153Z,79.40
2018-02-14T20:44:43.689Z,79.20
2018-02-14T20:47:11.235Z,79.10
2018-02-14T20:49:39.186Z,79.20
2018-02-14T20:52:07.116Z,79.40
2018-02-14T20:54:34.718Z,79.20
2018-02-14T20:57:02.234Z,79.20
2018-02-14T20:59:30.180Z,79.20
2018-02-14T21:01:58.080Z,79.40
2018-02-14T21:04:25.620Z,79.10
2018-02-14T21:06:53.129Z,79.00
2018-02-14T21:09:21.125Z,78.90
2018-02-14T21:11:48.797Z,78.80
2018-02-14T21:14:16.790Z,78.70
2018-02-14T21:19:13.663Z,78.00
2018-02-14T21:21:41.183Z,78.00
2018-02-14T21:24:08.765Z,77.70
2018-02-14T21:26:37.046Z,77.60
2018-02-14T21:29:04.955Z,77.70
2018-02-14T21:31:32.887Z,78.00
2018-02-14T21:34:01.163Z,78.10
2018-02-14T21:36:29.476Z,78.20
2018-02-14T21:41:26.651Z,78.30
2018-02-14T21:43:54.174Z,78.20
2018-02-14T21:46:21.711Z,78.20
2018-02-14T21:48:49.623Z,78.10
2018-02-14T21:51:17.150Z,78.10
2018-02-14T21:53:45.079Z,78.30
2018-02-14T21:56:12.609Z,78.30
2018-02-14T21:58:40.519Z,78.40
2018-02-14T22:01:08.449Z,78.40
2018-02-14T22:03:35.959Z,78.60
2018-02-14T22:06:03.524Z,78.80
2018-02-14T22:08:31.083Z,79.10
2018-02-14T22:10:58.647Z,79.40
2018-02-14T22:13:26.570Z,79.50
2018-02-14T22:15:54.115Z,79.40
2018-02-14T22:18:21.648Z,79.50
2018-02-14T22:20:49.574Z,79.50
2018-02-14T22:23:17.095Z,79.70
2018-02-14T22:25:44.626Z,79.90
2018-02-14T22:28:12.526Z,80.30
2018-02-14T22:30:40.055Z,80.60
2018-02-14T22:33:07.954Z,81.20
2018-02-14T22:35:35.499Z,81.40
2018-02-14T22:38:03.402Z,81.60
2018-02-14T22:40:30.943Z,81.80
2018-02-14T22:42:58.854Z,81.90
2018-02-14T22:45:26.388Z,82.00
2018-02-14T22:47:53.906Z,82.00
2018-02-14T22:50:22.210Z,82.00
2018-02-14T22:52:49.723Z,81.90
2018-02-14T22:55:17.254Z,81.80
2018-02-14T22:57:44.778Z,81.70
2018-02-14T23:49:26.970Z,80.60
2018-02-14T23:51:54.885Z,80.50
2018-02-14T23:54:22.791Z,80.90
2018-02-14T23:56:50.698Z,81.00
2018-02-14T23:59:18.198Z,81.10
